PAL1862 RPVM-RPLL
Flight info
| Callsign | PAL1862 |
|---|---|
| Flight time | 1h 2m |
| Altitude | 36000 |
| Route | MULOP4P MULOP W11 CONDE CONDE3R |
| Aircraft | A35K/H-SDE2E3GHIJ3J4J5LM1ORWXY/LB1D1 |
Departure
| Time | 2026-05-04 12:47 |
|---|---|
| Airport | Mactan Cebu International Airport (RPVM) |
Arrival
| Time | 2026-05-04 13:50 |
|---|---|
| Airport | Ninoy Aquino International Airport (RPLL) |
| Time | Latitude | Longitude | Altitude | Speed | Heading |
|---|---|---|---|---|---|
| 2026-05-04 12:31 | 10.31546 | 123.97977 | 41 ft | 0 kts | 315° |
| 2026-05-04 12:37 | 10.31537 | 123.97986 | 42 ft | 4 kts | 315° |
| 2026-05-04 12:38 | 10.31519 | 123.98005 | 40 ft | 4 kts | 309° |
| 2026-05-04 12:38 | 10.31509 | 123.98027 | 40 ft | 4 kts | 262° |
| 2026-05-04 12:38 | 10.31519 | 123.98052 | 38 ft | 4 kts | 232° |
| 2026-05-04 12:38 | 10.31532 | 123.98067 | 39 ft | 0 kts | 225° |
| 2026-05-04 12:41 | 10.31525 | 123.98060 | 38 ft | 3 kts | 223° |
| 2026-05-04 12:41 | 10.31494 | 123.98036 | 39 ft | 8 kts | 215° |
| 2026-05-04 12:41 | 10.31455 | 123.98000 | 43 ft | 8 kts | 232° |
| 2026-05-04 12:42 | 10.31410 | 123.97946 | 43 ft | 13 kts | 227° |
| 2026-05-04 12:42 | 10.31338 | 123.97901 | 43 ft | 11 kts | 174° |
| 2026-05-04 12:42 | 10.31273 | 123.97947 | 43 ft | 12 kts | 130° |
| 2026-05-04 12:42 | 10.31218 | 123.97981 | 43 ft | 7 kts | 193° |
| 2026-05-04 12:43 | 10.31142 | 123.97924 | 43 ft | 21 kts | 224° |
| 2026-05-04 12:43 | 10.31030 | 123.97812 | 42 ft | 24 kts | 225° |
| 2026-05-04 12:43 | 10.30904 | 123.97685 | 43 ft | 27 kts | 224° |
| 2026-05-04 12:43 | 10.30763 | 123.97546 | 43 ft | 30 kts | 224° |
| 2026-05-04 12:44 | 10.30618 | 123.97399 | 43 ft | 26 kts | 224° |
| 2026-05-04 12:44 | 10.30535 | 123.97316 | 43 ft | 13 kts | 224° |
| 2026-05-04 12:44 | 10.30461 | 123.97241 | 43 ft | 17 kts | 225° |
| 2026-05-04 12:44 | 10.30368 | 123.97147 | 43 ft | 21 kts | 224° |
| 2026-05-04 12:45 | 10.30256 | 123.97037 | 43 ft | 24 kts | 224° |
| 2026-05-04 12:45 | 10.30153 | 123.96935 | 43 ft | 18 kts | 224° |
| 2026-05-04 12:45 | 10.30058 | 123.96840 | 42 ft | 12 kts | 226° |
| 2026-05-04 12:45 | 10.29992 | 123.96771 | 43 ft | 16 kts | 225° |
| 2026-05-04 12:46 | 10.29904 | 123.96710 | 43 ft | 9 kts | 181° |
| 2026-05-04 12:46 | 10.29849 | 123.96743 | 42 ft | 11 kts | 141° |
| 2026-05-04 12:46 | 10.29766 | 123.96826 | 42 ft | 21 kts | 135° |
| 2026-05-04 12:46 | 10.29733 | 123.96908 | 42 ft | 11 kts | 66° |
| 2026-05-04 12:47 | 10.29786 | 123.96969 | 41 ft | 22 kts | 45° |
| 2026-05-04 12:47 | 10.30109 | 123.97294 | 42 ft | 106 kts | 44° |
| 2026-05-04 12:47 | 10.30807 | 123.97994 | 115 ft | 168 kts | 44° |
| 2026-05-04 12:47 | 10.31651 | 123.98847 | 900 ft | 173 kts | 44° |
| 2026-05-04 12:48 | 10.32502 | 123.99703 | 1900 ft | 170 kts | 45° |
| 2026-05-04 12:48 | 10.33341 | 124.00523 | 2631 ft | 163 kts | 36° |
| 2026-05-04 12:48 | 10.34390 | 124.00919 | 3187 ft | 168 kts | 6° |
| 2026-05-04 12:48 | 10.35633 | 124.00784 | 3416 ft | 194 kts | 349° |
| 2026-05-04 12:49 | 10.37043 | 124.00446 | 3629 ft | 221 kts | 348° |
| 2026-05-04 12:49 | 10.38623 | 124.00047 | 3905 ft | 246 kts | 347° |
| 2026-05-04 12:49 | 10.40338 | 123.99583 | 4337 ft | 261 kts | 346° |
| 2026-05-04 12:49 | 10.42105 | 123.99086 | 4994 ft | 266 kts | 346° |
| 2026-05-04 12:50 | 10.43882 | 123.98580 | 5665 ft | 270 kts | 345° |
| 2026-05-04 12:50 | 10.45705 | 123.98059 | 6349 ft | 273 kts | 345° |
| 2026-05-04 12:50 | 10.47545 | 123.97529 | 6987 ft | 276 kts | 345° |
| 2026-05-04 12:50 | 10.49417 | 123.96990 | 7619 ft | 281 kts | 345° |
| 2026-05-04 12:51 | 10.51313 | 123.96443 | 8247 ft | 284 kts | 345° |
| 2026-05-04 12:51 | 10.53212 | 123.95896 | 8894 ft | 288 kts | 345° |
| 2026-05-04 12:51 | 10.55157 | 123.95335 | 9533 ft | 292 kts | 345° |
| 2026-05-04 12:51 | 10.57139 | 123.94764 | 10173 ft | 296 kts | 345° |
| 2026-05-04 12:52 | 10.59153 | 123.94183 | 10466 ft | 311 kts | 345° |
| 2026-05-04 12:52 | 10.61308 | 123.93562 | 10717 ft | 328 kts | 345° |
| 2026-05-04 12:52 | 10.63514 | 123.92891 | 10964 ft | 342 kts | 341° |
| 2026-05-04 12:52 | 10.65625 | 123.91703 | 11352 ft | 352 kts | 321° |
| 2026-05-04 12:53 | 10.67361 | 123.89898 | 11814 ft | 359 kts | 312° |
| 2026-05-04 12:53 | 10.68977 | 123.87970 | 12281 ft | 364 kts | 311° |
| 2026-05-04 12:53 | 10.70624 | 123.85993 | 12783 ft | 367 kts | 311° |
| 2026-05-04 12:53 | 10.72289 | 123.84009 | 13274 ft | 371 kts | 311° |
| 2026-05-04 12:54 | 10.73977 | 123.82005 | 13753 ft | 374 kts | 312° |
| 2026-05-04 12:54 | 10.75681 | 123.79987 | 14180 ft | 377 kts | 312° |
| 2026-05-04 12:54 | 10.77400 | 123.77953 | 14626 ft | 380 kts | 312° |
| 2026-05-04 12:54 | 10.79127 | 123.75912 | 15072 ft | 382 kts | 312° |
| 2026-05-04 12:55 | 10.80871 | 123.73857 | 15517 ft | 385 kts | 312° |
| 2026-05-04 12:55 | 10.82626 | 123.71786 | 15974 ft | 388 kts | 312° |
| 2026-05-04 12:55 | 10.84369 | 123.69721 | 16409 ft | 390 kts | 312° |
| 2026-05-04 12:55 | 10.86144 | 123.67620 | 16859 ft | 393 kts | 312° |
| 2026-05-04 12:56 | 10.87929 | 123.65507 | 17303 ft | 395 kts | 312° |
| 2026-05-04 12:56 | 10.89733 | 123.63374 | 17733 ft | 398 kts | 312° |
| 2026-05-04 12:56 | 10.91544 | 123.61230 | 18162 ft | 400 kts | 312° |
| 2026-05-04 12:56 | 10.93367 | 123.59074 | 18537 ft | 403 kts | 312° |
| 2026-05-04 12:57 | 10.95199 | 123.56905 | 18916 ft | 405 kts | 312° |
| 2026-05-04 12:57 | 10.97016 | 123.54754 | 19292 ft | 407 kts | 312° |
| 2026-05-04 12:57 | 10.98873 | 123.52566 | 19663 ft | 409 kts | 313° |
| 2026-05-04 12:57 | 11.00896 | 123.50535 | 20040 ft | 409 kts | 322° |
| 2026-05-04 12:58 | 11.03153 | 123.48743 | 20430 ft | 410 kts | 325° |
| 2026-05-04 12:58 | 11.05486 | 123.47065 | 20798 ft | 412 kts | 327° |
| 2026-05-04 12:58 | 11.07865 | 123.45431 | 21148 ft | 414 kts | 328° |
| 2026-05-04 12:58 | 11.10270 | 123.43802 | 21523 ft | 416 kts | 328° |
| 2026-05-04 12:59 | 11.12683 | 123.42162 | 21878 ft | 418 kts | 327° |
| 2026-05-04 12:59 | 11.15109 | 123.40497 | 22229 ft | 420 kts | 327° |
| 2026-05-04 12:59 | 11.17532 | 123.38822 | 22561 ft | 422 kts | 327° |
| 2026-05-04 12:59 | 11.19965 | 123.37127 | 22910 ft | 424 kts | 327° |
| 2026-05-04 13:00 | 11.22407 | 123.35421 | 23224 ft | 427 kts | 327° |
| 2026-05-04 13:00 | 11.24835 | 123.33721 | 23523 ft | 429 kts | 327° |
| 2026-05-04 13:00 | 11.27314 | 123.31986 | 23794 ft | 431 kts | 327° |
| 2026-05-04 13:00 | 11.29787 | 123.30254 | 24068 ft | 433 kts | 327° |
| 2026-05-04 13:01 | 11.32274 | 123.28512 | 24335 ft | 435 kts | 327° |
| 2026-05-04 13:01 | 11.34775 | 123.26761 | 24612 ft | 436 kts | 327° |
| 2026-05-04 13:01 | 11.37259 | 123.25022 | 24864 ft | 438 kts | 327° |
| 2026-05-04 13:01 | 11.39776 | 123.23260 | 25111 ft | 441 kts | 327° |
| 2026-05-04 13:02 | 11.42311 | 123.21485 | 25369 ft | 442 kts | 327° |
| 2026-05-04 13:02 | 11.44857 | 123.19702 | 25665 ft | 443 kts | 327° |
| 2026-05-04 13:02 | 11.47408 | 123.17914 | 25931 ft | 445 kts | 327° |
| 2026-05-04 13:02 | 11.49971 | 123.16118 | 26179 ft | 448 kts | 327° |
| 2026-05-04 13:03 | 11.52544 | 123.14314 | 26452 ft | 450 kts | 327° |
| 2026-05-04 13:03 | 11.55128 | 123.12502 | 26747 ft | 451 kts | 327° |
| 2026-05-04 13:03 | 11.57725 | 123.10681 | 27030 ft | 453 kts | 327° |
| 2026-05-04 13:03 | 11.60296 | 123.08878 | 27301 ft | 455 kts | 327° |
| 2026-05-04 13:04 | 11.62911 | 123.07043 | 27589 ft | 457 kts | 327° |
| 2026-05-04 13:04 | 11.65546 | 123.05194 | 27871 ft | 460 kts | 327° |
| 2026-05-04 13:04 | 11.68188 | 123.03340 | 28166 ft | 462 kts | 327° |
| 2026-05-04 13:04 | 11.70848 | 123.01472 | 28440 ft | 464 kts | 326° |
| 2026-05-04 13:05 | 11.73520 | 122.99595 | 28715 ft | 467 kts | 326° |
| 2026-05-04 13:05 | 11.76202 | 122.97711 | 29142 ft | 465 kts | 326° |
| 2026-05-04 13:05 | 11.78830 | 122.95864 | 29976 ft | 455 kts | 326° |
| 2026-05-04 13:05 | 11.81409 | 122.94050 | 30693 ft | 445 kts | 326° |
| 2026-05-04 13:06 | 11.83934 | 122.92274 | 31421 ft | 437 kts | 326° |
| 2026-05-04 13:06 | 11.86428 | 122.90520 | 31993 ft | 433 kts | 326° |
| 2026-05-04 13:06 | 11.88912 | 122.88773 | 32426 ft | 433 kts | 325° |
| 2026-05-04 13:06 | 11.91401 | 122.87023 | 32750 ft | 435 kts | 325° |
| 2026-05-04 13:07 | 11.93906 | 122.85261 | 33090 ft | 438 kts | 325° |
| 2026-05-04 13:07 | 11.96385 | 122.83516 | 33434 ft | 439 kts | 325° |
| 2026-05-04 13:07 | 11.98906 | 122.81741 | 33711 ft | 443 kts | 324° |
| 2026-05-04 13:07 | 12.01465 | 122.79940 | 33867 ft | 450 kts | 324° |
| 2026-05-04 13:08 | 12.04066 | 122.78108 | 33931 ft | 454 kts | 324° |
| 2026-05-04 13:08 | 12.09268 | 122.74443 | 33938 ft | 454 kts | 324° |
| 2026-05-04 13:09 | 12.14471 | 122.70776 | 33941 ft | 454 kts | 324° |
| 2026-05-04 13:09 | 12.19673 | 122.67108 | 33942 ft | 453 kts | 324° |
| 2026-05-04 13:10 | 12.24867 | 122.63444 | 33940 ft | 454 kts | 324° |
| 2026-05-04 13:10 | 12.30061 | 122.59778 | 33941 ft | 453 kts | 324° |
| 2026-05-04 13:11 | 12.35222 | 122.56134 | 33942 ft | 453 kts | 324° |
| 2026-05-04 13:11 | 12.40403 | 122.52475 | 33941 ft | 451 kts | 324° |
| 2026-05-04 13:12 | 12.45563 | 122.48826 | 33941 ft | 451 kts | 324° |
| 2026-05-04 13:12 | 12.50732 | 122.45169 | 33940 ft | 451 kts | 324° |
| 2026-05-04 13:13 | 12.55884 | 122.41523 | 33940 ft | 450 kts | 324° |
| 2026-05-04 13:13 | 12.61044 | 122.37869 | 33941 ft | 450 kts | 324° |
| 2026-05-04 13:14 | 12.66173 | 122.34237 | 33939 ft | 450 kts | 324° |
| 2026-05-04 13:14 | 12.71330 | 122.30581 | 33939 ft | 450 kts | 324° |
| 2026-05-04 13:15 | 12.76474 | 122.26934 | 33941 ft | 448 kts | 324° |
| 2026-05-04 13:15 | 12.80422 | 122.24134 | 33938 ft | 448 kts | 324° |
| 2026-05-04 13:16 | 12.86384 | 122.19902 | 33941 ft | 448 kts | 324° |
| 2026-05-04 13:16 | 12.90679 | 122.16852 | 33919 ft | 448 kts | 324° |
| 2026-05-04 13:17 | 12.95855 | 122.13175 | 33241 ft | 453 kts | 324° |
| 2026-05-04 13:17 | 12.98433 | 122.11343 | 32488 ft | 456 kts | 324° |
| 2026-05-04 13:17 | 13.01032 | 122.09495 | 31984 ft | 453 kts | 325° |
| 2026-05-04 13:17 | 13.03607 | 122.07664 | 31500 ft | 449 kts | 325° |
| 2026-05-04 13:18 | 13.06168 | 122.05843 | 31022 ft | 445 kts | 325° |
| 2026-05-04 13:18 | 13.08705 | 122.04038 | 30544 ft | 443 kts | 325° |
| 2026-05-04 13:18 | 13.11234 | 122.02238 | 30078 ft | 442 kts | 325° |
| 2026-05-04 13:18 | 13.13761 | 122.00439 | 29532 ft | 440 kts | 325° |
| 2026-05-04 13:19 | 13.16273 | 121.98651 | 29053 ft | 437 kts | 325° |
| 2026-05-04 13:19 | 13.18764 | 121.96877 | 28579 ft | 433 kts | 325° |
| 2026-05-04 13:19 | 13.21230 | 121.95120 | 28100 ft | 429 kts | 325° |
| 2026-05-04 13:19 | 13.23643 | 121.93401 | 27650 ft | 426 kts | 326° |
| 2026-05-04 13:20 | 13.26070 | 121.91671 | 27177 ft | 422 kts | 326° |
| 2026-05-04 13:20 | 13.28477 | 121.89955 | 26714 ft | 419 kts | 326° |
| 2026-05-04 13:20 | 13.30863 | 121.88254 | 26251 ft | 415 kts | 326° |
| 2026-05-04 13:20 | 13.33225 | 121.86569 | 25779 ft | 412 kts | 326° |
| 2026-05-04 13:21 | 13.35567 | 121.84898 | 25337 ft | 409 kts | 326° |
| 2026-05-04 13:21 | 13.37895 | 121.83237 | 24869 ft | 406 kts | 326° |
| 2026-05-04 13:21 | 13.40214 | 121.81582 | 24407 ft | 403 kts | 326° |
| 2026-05-04 13:21 | 13.42478 | 121.79965 | 23949 ft | 400 kts | 326° |
| 2026-05-04 13:22 | 13.44784 | 121.78318 | 23473 ft | 398 kts | 326° |
| 2026-05-04 13:22 | 13.47028 | 121.76716 | 22959 ft | 397 kts | 326° |
| 2026-05-04 13:22 | 13.49291 | 121.75100 | 22480 ft | 396 kts | 326° |
| 2026-05-04 13:22 | 13.51545 | 121.73490 | 22020 ft | 393 kts | 326° |
| 2026-05-04 13:23 | 13.53777 | 121.71894 | 21556 ft | 388 kts | 326° |
| 2026-05-04 13:23 | 13.55989 | 121.70312 | 21108 ft | 386 kts | 326° |
| 2026-05-04 13:23 | 13.58186 | 121.68742 | 20712 ft | 382 kts | 326° |
| 2026-05-04 13:23 | 13.60327 | 121.67210 | 20578 ft | 368 kts | 326° |
| 2026-05-04 13:24 | 13.62394 | 121.65730 | 20425 ft | 362 kts | 326° |
| 2026-05-04 13:24 | 13.64476 | 121.64241 | 20085 ft | 363 kts | 326° |
| 2026-05-04 13:24 | 13.66542 | 121.62762 | 19591 ft | 363 kts | 326° |
| 2026-05-04 13:25 | 13.70684 | 121.59800 | 18724 ft | 359 kts | 326° |
| 2026-05-04 13:25 | 13.72712 | 121.58348 | 18406 ft | 353 kts | 326° |
| 2026-05-04 13:25 | 13.74713 | 121.56915 | 18012 ft | 349 kts | 326° |
| 2026-05-04 13:25 | 13.76688 | 121.55500 | 17449 ft | 350 kts | 326° |
| 2026-05-04 13:26 | 13.78677 | 121.54073 | 17034 ft | 346 kts | 326° |
| 2026-05-04 13:26 | 13.80648 | 121.52659 | 16523 ft | 345 kts | 327° |
| 2026-05-04 13:26 | 13.82613 | 121.51250 | 16123 ft | 341 kts | 326° |
| 2026-05-04 13:26 | 13.84522 | 121.49880 | 15820 ft | 334 kts | 326° |
| 2026-05-04 13:27 | 13.86447 | 121.48499 | 15375 ft | 332 kts | 326° |
| 2026-05-04 13:27 | 13.88340 | 121.47140 | 14931 ft | 330 kts | 326° |
| 2026-05-04 13:27 | 13.90193 | 121.45811 | 14506 ft | 328 kts | 327° |
| 2026-05-04 13:27 | 13.92058 | 121.44472 | 14097 ft | 326 kts | 327° |
| 2026-05-04 13:28 | 13.93916 | 121.43138 | 13674 ft | 323 kts | 327° |
| 2026-05-04 13:28 | 13.95757 | 121.41817 | 13217 ft | 321 kts | 327° |
| 2026-05-04 13:28 | 13.97578 | 121.40508 | 12759 ft | 318 kts | 327° |
| 2026-05-04 13:28 | 13.99388 | 121.39208 | 12325 ft | 315 kts | 327° |
| 2026-05-04 13:29 | 14.01179 | 121.37921 | 11883 ft | 313 kts | 327° |
| 2026-05-04 13:29 | 14.02960 | 121.36640 | 11460 ft | 310 kts | 327° |
| 2026-05-04 13:29 | 14.04702 | 121.35388 | 11124 ft | 307 kts | 328° |
| 2026-05-04 13:29 | 14.06454 | 121.34130 | 11026 ft | 307 kts | 328° |
| 2026-05-04 13:30 | 14.08206 | 121.32871 | 11004 ft | 307 kts | 328° |
| 2026-05-04 13:30 | 14.09956 | 121.31614 | 11009 ft | 305 kts | 328° |
| 2026-05-04 13:30 | 14.11700 | 121.30360 | 11024 ft | 305 kts | 328° |
| 2026-05-04 13:30 | 14.13445 | 121.29107 | 10999 ft | 305 kts | 328° |
| 2026-05-04 13:31 | 14.15182 | 121.27857 | 10995 ft | 305 kts | 328° |
| 2026-05-04 13:31 | 14.16912 | 121.26611 | 10697 ft | 301 kts | 328° |
| 2026-05-04 13:31 | 14.18626 | 121.25376 | 10222 ft | 300 kts | 328° |
| 2026-05-04 13:31 | 14.20314 | 121.24159 | 9816 ft | 298 kts | 328° |
| 2026-05-04 13:32 | 14.22007 | 121.22938 | 9357 ft | 296 kts | 328° |
| 2026-05-04 13:32 | 14.23689 | 121.21727 | 9059 ft | 294 kts | 328° |
| 2026-05-04 13:32 | 14.25376 | 121.20512 | 8765 ft | 297 kts | 328° |
| 2026-05-04 13:32 | 14.27074 | 121.19290 | 8286 ft | 295 kts | 328° |
| 2026-05-04 13:33 | 14.28747 | 121.18085 | 7894 ft | 290 kts | 328° |
| 2026-05-04 13:33 | 14.30388 | 121.16903 | 7452 ft | 288 kts | 327° |
| 2026-05-04 13:33 | 14.32029 | 121.15717 | 7026 ft | 286 kts | 328° |
| 2026-05-04 13:33 | 14.33472 | 121.14354 | 6553 ft | 290 kts | 309° |
| 2026-05-04 13:34 | 14.34287 | 121.12441 | 6156 ft | 293 kts | 282° |
| 2026-05-04 13:34 | 14.34212 | 121.10362 | 6012 ft | 292 kts | 255° |
| 2026-05-04 13:34 | 14.33381 | 121.08449 | 5983 ft | 295 kts | 239° |
| 2026-05-04 13:34 | 14.33027 | 121.07828 | 5986 ft | 296 kts | 238° |
| 2026-05-04 13:35 | 14.31940 | 121.06023 | 5983 ft | 296 kts | 237° |
| 2026-05-04 13:35 | 14.28013 | 120.99617 | 5997 ft | 292 kts | 237° |
| 2026-05-04 13:36 | 14.26924 | 120.97842 | 5980 ft | 293 kts | 237° |
| 2026-05-04 13:36 | 14.25836 | 120.96060 | 6000 ft | 295 kts | 237° |
| 2026-05-04 13:36 | 14.24754 | 120.94291 | 5757 ft | 296 kts | 237° |
| 2026-05-04 13:36 | 14.23659 | 120.92508 | 5404 ft | 290 kts | 237° |
| 2026-05-04 13:37 | 14.22593 | 120.90763 | 5093 ft | 285 kts | 237° |
| 2026-05-04 13:37 | 14.21596 | 120.88999 | 4996 ft | 286 kts | 246° |
| 2026-05-04 13:37 | 14.21200 | 120.87004 | 4996 ft | 285 kts | 270° |
| 2026-05-04 13:37 | 14.21314 | 120.84964 | 4991 ft | 285 kts | 276° |
| 2026-05-04 13:38 | 14.21527 | 120.82934 | 4991 ft | 285 kts | 277° |
| 2026-05-04 13:38 | 14.21749 | 120.80899 | 4986 ft | 285 kts | 277° |
| 2026-05-04 13:38 | 14.21970 | 120.78864 | 4987 ft | 285 kts | 277° |
| 2026-05-04 13:38 | 14.22191 | 120.76831 | 4994 ft | 285 kts | 277° |
| 2026-05-04 13:39 | 14.22412 | 120.74830 | 4989 ft | 285 kts | 277° |
| 2026-05-04 13:39 | 14.22633 | 120.72799 | 4995 ft | 285 kts | 277° |
| 2026-05-04 13:39 | 14.22858 | 120.70771 | 4983 ft | 284 kts | 277° |
| 2026-05-04 13:39 | 14.23085 | 120.68752 | 4999 ft | 284 kts | 277° |
| 2026-05-04 13:40 | 14.23431 | 120.66754 | 4984 ft | 284 kts | 290° |
| 2026-05-04 13:40 | 14.24410 | 120.65018 | 4995 ft | 280 kts | 310° |
| 2026-05-04 13:40 | 14.25747 | 120.63558 | 4981 ft | 279 kts | 322° |
| 2026-05-04 13:40 | 14.27427 | 120.62609 | 4981 ft | 275 kts | 346° |
| 2026-05-04 13:41 | 14.29300 | 120.62511 | 4983 ft | 270 kts | 13° |
| 2026-05-04 13:41 | 14.30963 | 120.63329 | 4922 ft | 266 kts | 42° |
| 2026-05-04 13:41 | 14.32013 | 120.64876 | 4810 ft | 264 kts | 66° |
| 2026-05-04 13:42 | 14.33463 | 120.68362 | 4563 ft | 264 kts | 66° |
| 2026-05-04 13:42 | 14.34223 | 120.70098 | 4429 ft | 264 kts | 65° |
| 2026-05-04 13:42 | 14.34996 | 120.71809 | 4312 ft | 261 kts | 65° |
| 2026-05-04 13:42 | 14.35753 | 120.73461 | 4162 ft | 248 kts | 65° |
| 2026-05-04 13:43 | 14.36478 | 120.75025 | 4007 ft | 236 kts | 65° |
| 2026-05-04 13:43 | 14.37161 | 120.76495 | 3869 ft | 224 kts | 65° |
| 2026-05-04 13:44 | 14.40491 | 120.83033 | 3023 ft | 185 kts | 46° |
| 2026-05-04 13:44 | 14.41208 | 120.84109 | 2995 ft | 181 kts | 67° |
| 2026-05-04 13:45 | 14.41799 | 120.85261 | 2977 ft | 182 kts | 61° |
| 2026-05-04 13:45 | 14.42374 | 120.86284 | 2935 ft | 182 kts | 63° |
| 2026-05-04 13:45 | 14.43004 | 120.87397 | 2750 ft | 181 kts | 63° |
| 2026-05-04 13:45 | 14.43613 | 120.88513 | 2514 ft | 180 kts | 64° |
| 2026-05-04 13:46 | 14.44201 | 120.89616 | 2279 ft | 170 kts | 62° |
| 2026-05-04 13:46 | 14.44755 | 120.90640 | 2057 ft | 156 kts | 63° |
| 2026-05-04 13:46 | 14.45262 | 120.91583 | 1865 ft | 145 kts | 65° |
| 2026-05-04 13:46 | 14.45733 | 120.92460 | 1689 ft | 135 kts | 65° |
| 2026-05-04 13:47 | 14.46183 | 120.93297 | 1513 ft | 132 kts | 64° |
| 2026-05-04 13:47 | 14.46486 | 120.93858 | 1400 ft | 134 kts | 65° |
| 2026-05-04 13:47 | 14.46942 | 120.94705 | 1239 ft | 135 kts | 65° |
| 2026-05-04 13:47 | 14.47391 | 120.95540 | 1059 ft | 134 kts | 66° |
| 2026-05-04 13:48 | 14.47844 | 120.96383 | 906 ft | 134 kts | 64° |
| 2026-05-04 13:48 | 14.48288 | 120.97226 | 730 ft | 133 kts | 64° |
| 2026-05-04 13:48 | 14.48720 | 120.98068 | 529 ft | 132 kts | 63° |
| 2026-05-04 13:48 | 14.49174 | 120.98899 | 373 ft | 133 kts | 61° |
| 2026-05-04 13:49 | 14.49638 | 120.99741 | 212 ft | 135 kts | 63° |
| 2026-05-04 13:49 | 14.50098 | 121.00572 | 62 ft | 127 kts | 60° |
| 2026-05-04 13:49 | 14.50461 | 121.01224 | 67 ft | 89 kts | 60° |
| 2026-05-04 13:49 | 14.50739 | 121.01725 | 66 ft | 72 kts | 60° |
| 2026-05-04 13:50 | 14.50961 | 121.02122 | 66 ft | 42 kts | 60° |
| 2026-05-04 13:50 | 14.51140 | 121.02301 | 70 ft | 20 kts | 23° |
| 2026-05-04 13:50 | 14.51189 | 121.02268 | 65 ft | 7 kts | 269° |
| 2026-05-04 13:50 | 14.51165 | 121.02210 | 65 ft | 13 kts | 239° |
| 2026-05-04 13:51 | 14.51114 | 121.02119 | 64 ft | 18 kts | 240° |
| 2026-05-04 13:51 | 14.51027 | 121.01961 | 67 ft | 28 kts | 240° |
| 2026-05-04 13:51 | 14.50922 | 121.01776 | 64 ft | 32 kts | 240° |
| 2026-05-04 13:51 | 14.50807 | 121.01569 | 64 ft | 34 kts | 240° |
| 2026-05-04 13:52 | 14.50552 | 121.01110 | 67 ft | 39 kts | 240° |
| 2026-05-04 13:52 | 14.50423 | 121.00878 | 67 ft | 25 kts | 239° |
| 2026-05-04 13:52 | 14.50381 | 121.00718 | 66 ft | 24 kts | 269° |
| 2026-05-04 13:53 | 14.50329 | 121.00559 | 70 ft | 24 kts | 240° |
| 2026-05-04 13:53 | 14.50256 | 121.00422 | 65 ft | 11 kts | 254° |
| 2026-05-04 13:53 | 14.50283 | 121.00406 | 72 ft | 8 kts | 360° |
| 2026-05-04 13:54 | 14.50327 | 121.00419 | 65 ft | 1 kts | 18° |
| 2026-05-04 13:54 | 14.50330 | 121.00420 | 66 ft | 0 kts | 18° |